Time;durP1;ratioP1;P1;durP2;ratioP2;P2;SDS_P1;SDS_P2;PMS_P1;PMS_P2;Temp;Humidity;BMP_temperature;BMP_pressure;BME280_temperature;BME280_humidity;BME280_pressure;Samples;Min_cycle;Max_cycle;Signal;HPM_P1;HPM_P2
2022/06/11 00:00:15;;;;;;;6.10;2.90;;;;;;;17.48;100.00;102151.88;4955871;28;20481;-73
2022/06/11 00:02:41;;;;;;;4.50;2.83;;;;;;;17.33;100.00;102116.84;4956099;28;20254;-73
2022/06/11 00:05:07;;;;;;;5.00;2.87;;;;;;;17.47;100.00;102158.31;4955211;28;20453;-73
2022/06/11 00:07:33;;;;;;;7.00;3.27;;;;;;;17.39;100.00;102157.50;4954549;28;20209;-73
2022/06/11 00:09:58;;;;;;;5.60;3.00;;;;;;;17.29;100.00;102151.66;4958989;28;20252;-73
2022/06/11 00:12:25;;;;;;;5.53;2.93;;;;;;;17.42;100.00;102148.13;4955944;28;20962;-73
2022/06/11 00:14:51;;;;;;;4.00;3.00;;;;;;;17.48;100.00;102160.81;4944503;28;20195;-73
2022/06/11 00:17:19;;;;;;;4.80;3.23;;;;;;;17.49;100.00;102157.06;4953906;28;20477;-73
2022/06/11 00:19:45;;;;;;;3.90;3.07;;;;;;;17.44;100.00;102143.28;4957573;28;20195;-73
2022/06/11 00:22:12;;;;;;;4.80;2.87;;;;;;;17.11;100.00;102089.16;4955065;28;20476;-73
2022/06/11 00:24:38;;;;;;;3.90;3.00;;;;;;;17.45;100.00;102163.13;4956766;28;20187;-73
2022/06/11 00:27:04;;;;;;;5.33;3.43;;;;;;;17.28;100.00;102136.47;4957883;28;20524;-73
2022/06/11 00:29:32;;;;;;;5.60;3.43;;;;;;;16.97;100.00;102072.06;4955959;28;20460;-72
2022/06/11 00:31:58;;;;;;;7.10;4.20;;;;;;;17.42;100.00;102136.44;4943857;28;20297;-72
2022/06/11 00:34:24;;;;;;;7.33;4.20;;;;;;;16.99;100.00;102039.34;4958731;28;20832;-71
2022/06/11 00:36:50;;;;;;;5.60;3.30;;;;;;;17.65;100.00;102144.06;4957931;28;20870;-72
2022/06/11 00:39:19;;;;;;;6.27;3.43;;;;;;;17.67;100.00;102139.25;4956534;28;20992;-72
2022/06/11 00:41:50;;;;;;;5.70;3.77;;;;;;;17.61;100.00;102135.53;4955526;28;20997;-72
2022/06/11 00:44:16;;;;;;;5.00;3.50;;;;;;;17.69;100.00;102129.88;4960539;28;20477;-72
2022/06/11 00:46:48;;;;;;;6.03;3.50;;;;;;;17.55;100.00;102130.97;4954065;28;20439;-71
2022/06/11 00:49:16;;;;;;;4.97;3.20;;;;;;;17.51;100.00;102127.84;4958635;28;20186;-71
2022/06/11 00:51:41;;;;;;;10.47;3.73;;;;;;;17.17;100.00;102091.00;4952281;28;20964;-71
2022/06/11 00:54:13;;;;;;;7.03;3.50;;;;;;;17.02;100.00;102060.63;4955769;28;20437;-72
2022/06/11 00:56:44;;;;;;;5.17;3.97;;;;;;;17.49;100.00;102134.53;4953685;28;20201;-71
2022/06/11 00:59:17;;;;;;;5.67;4.07;;;;;;;17.06;100.00;102067.25;4956365;28;20442;-74
2022/06/11 01:01:43;;;;;;;4.80;4.07;;;;;;;17.37;100.00;102113.50;4959079;28;20465;-74
2022/06/11 01:04:38;;;;;;;6.17;3.93;;;;;;;17.53;100.00;102130.34;4957080;28;20458;-74
2022/06/11 01:07:35;;;;;;;5.40;3.60;;;;;;;17.34;100.00;102130.19;4958231;28;20183;-75
2022/06/11 01:10:21;;;;;;;7.60;4.13;;;;;;;17.31;100.00;102130.63;4958885;28;20492;-74
2022/06/11 01:13:18;;;;;;;6.50;4.83;;;;;;;17.21;100.00;102132.09;4958587;28;20454;-73
2022/06/11 01:15:54;;;;;;;5.73;4.30;;;;;;;17.31;100.00;102127.91;4957234;28;20807;-74
2022/06/11 01:18:45;;;;;;;5.63;4.20;;;;;;;17.03;100.00;102073.13;4954422;28;20449;-73
2022/06/11 01:21:21;;;;;;;7.77;4.63;;;;;;;17.23;100.00;102122.69;4957126;28;20501;-74
2022/06/11 01:24:16;;;;;;;7.87;5.43;;;;;;;17.19;100.00;102096.25;4955070;28;20444;-73
2022/06/11 01:27:13;;;;;;;5.40;4.83;;;;;;;17.36;100.00;102124.56;4952489;28;20442;-72
2022/06/11 01:29:48;;;;;;;5.43;4.70;;;;;;;17.22;100.00;102121.03;4955702;28;20457;-72
2022/06/11 01:32:22;;;;;;;4.97;4.47;;;;;;;17.21;100.00;102116.66;4951390;28;20899;-72
2022/06/11 01:35:06;;;;;;;5.40;4.20;;;;;;;17.15;100.00;102090.38;4954765;28;20446;-73
2022/06/11 01:37:40;;;;;;;4.13;3.73;;;;;;;16.93;100.00;102041.88;4955497;28;20473;-72
2022/06/11 01:40:09;;;;;;;7.80;4.17;;;;;;;17.32;100.00;102096.19;4950644;28;20573;-72
2022/06/11 01:42:44;;;;;;;7.40;4.03;;;;;;;17.25;100.00;102101.63;4948974;28;20464;-72
2022/06/11 01:45:34;;;;;;;4.93;3.77;;;;;;;17.21;100.00;102096.84;4949971;28;20441;-72
2022/06/11 01:48:03;;;;;;;5.57;2.57;;;;;;;16.67;100.00;101987.69;4955456;28;20430;-72
2022/06/11 01:50:34;;;;;;;5.27;3.30;;;;;;;17.18;100.00;102076.41;4956990;28;20500;-72
2022/06/11 01:53:25;;;;;;;3.73;2.53;;;;;;;17.25;100.00;102096.22;4953382;28;20525;-72
2022/06/11 01:56:12;;;;;;;5.47;2.57;;;;;;;17.32;100.00;102080.75;4953345;28;20767;-72
2022/06/11 01:58:48;;;;;;;5.00;2.77;;;;;;;17.12;100.00;102071.84;4957882;28;20434;-72
2022/06/11 02:01:33;;;;;;;4.50;2.63;;;;;;;16.98;100.00;102079.19;4949814;28;20481;-72
2022/06/11 02:04:35;;;;;;;6.20;2.60;;;;;;;16.99;100.00;102072.72;4954429;28;20434;-72
2022/06/11 02:07:20;;;;;;;3.80;2.53;;;;;;;16.84;100.00;102070.22;4954328;28;20431;-72
2022/06/11 02:10:03;;;;;;;5.43;2.07;;;;;;;16.90;100.00;102057.72;4954911;28;20953;-72
2022/06/11 02:12:41;;;;;;;4.57;2.10;;;;;;;16.56;100.00;101988.34;4956064;28;20469;-72
2022/06/11 02:15:18;;;;;;;8.17;2.60;;;;;;;16.90;100.00;102055.00;4952898;28;20447;-72
2022/06/11 02:17:48;;;;;;;6.40;2.20;;;;;;;16.30;100.00;101964.84;4955402;28;20464;-72
2022/06/11 02:20:19;;;;;;;7.60;1.90;;;;;;;16.84;100.00;102051.25;4955441;28;20434;-71
2022/06/11 02:22:44;;;;;;;4.27;2.23;;;;;;;16.77;100.00;102050.44;4953781;28;20564;-72
2022/06/11 02:25:17;;;;;;;3.70;1.87;;;;;;;16.62;100.00;102033.53;4955929;28;20525;-73
2022/06/11 02:27:46;;;;;;;4.47;1.90;;;;;;;16.85;100.00;102036.66;4956388;28;20756;-73
2022/06/11 02:30:17;;;;;;;6.73;2.47;;;;;;;16.76;100.00;102050.63;4956735;28;20484;-73
2022/06/11 02:32:42;;;;;;;5.43;2.07;;;;;;;16.80;100.00;102044.59;4956167;28;20592;-73
2022/06/11 02:35:12;;;;;;;4.53;2.07;;;;;;;16.81;100.00;102031.91;4955341;28;20504;-73
2022/06/11 02:37:41;;;;;;;3.90;1.63;;;;;;;16.89;100.00;102031.66;4959751;28;20203;-73
2022/06/11 02:40:14;;;;;;;5.10;1.80;;;;;;;16.93;100.00;102028.31;4951625;28;20524;-73
2022/06/11 02:42:40;;;;;;;9.50;2.00;;;;;;;16.13;100.00;101942.75;4956149;28;20470;-73
2022/06/11 02:45:06;;;;;;;4.30;1.87;;;;;;;16.80;100.00;102030.22;4953620;28;20530;-72
2022/06/11 02:47:32;;;;;;;5.33;1.87;;;;;;;16.55;100.00;101990.22;4958668;28;20183;-73
2022/06/11 02:49:57;;;;;;;5.60;2.00;;;;;;;16.28;100.00;101959.59;4954371;28;20442;-72
2022/06/11 02:52:24;;;;;;;3.60;1.70;;;;;;;16.77;100.00;102026.03;4948514;28;20224;-72
2022/06/11 02:54:51;;;;;;;6.37;1.97;;;;;;;16.78;100.00;102024.16;4952816;28;20206;-73
2022/06/11 02:57:21;;;;;;;3.77;1.70;;;;;;;16.73;100.00;102032.91;4937777;28;20474;-72
2022/06/11 02:59:48;;;;;;;5.50;1.63;;;;;;;16.43;100.00;102006.28;4956002;28;20501;-73
2022/06/11 03:02:14;;;;;;;10.37;2.07;;;;;;;16.75;100.00;102027.25;4955116;28;20497;-73
2022/06/11 03:04:40;;;;;;;4.60;1.67;;;;;;;16.28;100.00;101967.72;4952293;28;20460;-73
2022/06/11 03:07:08;;;;;;;4.27;1.50;;;;;;;16.67;100.00;102026.44;4954830;28;20442;-73
2022/06/11 03:09:36;;;;;;;3.30;1.30;;;;;;;16.70;100.00;102022.50;4949017;28;20667;-72
2022/06/11 03:12:03;;;;;;;3.47;1.60;;;;;;;16.69;100.00;102018.09;4957969;28;20489;-72
2022/06/11 03:14:29;;;;;;;7.43;1.43;;;;;;;16.61;100.00;101994.78;4963257;28;20497;-72
2022/06/11 03:16:54;;;;;;;5.97;1.90;;;;;;;16.06;100.00;101913.00;4962305;28;20914;-72
2022/06/11 03:19:21;;;;;;;5.10;1.90;;;;;;;16.78;100.00;102033.16;4961914;28;20194;-73
2022/06/11 03:21:53;;;;;;;4.80;1.87;;;;;;;16.62;100.00;102017.28;4962319;28;20206;-72
2022/06/11 03:24:20;;;;;;;4.13;1.80;;;;;;;16.70;100.00;102030.63;4961014;28;21076;-72
2022/06/11 03:26:46;;;;;;;3.20;1.50;;;;;;;16.53;100.00;102008.53;4963098;28;20448;-73
2022/06/11 03:29:11;;;;;;;2.90;1.23;;;;;;;16.73;100.00;102035.63;4960793;28;20525;-73
2022/06/11 03:31:37;;;;;;;5.30;1.50;;;;;;;16.18;100.00;101961.91;4964961;28;20536;-73
2022/06/11 03:34:03;;;;;;;2.30;1.17;;;;;;;16.40;100.00;101993.16;4963516;28;20190;-72
2022/06/11 03:36:29;;;;;;;7.03;2.10;;;;;;;16.66;100.00;102040.19;4962123;28;20597;-73
2022/06/11 03:38:55;;;;;;;4.73;1.80;;;;;;;16.68;100.00;102033.53;4961102;28;20191;-73
2022/06/11 03:41:21;;;;;;;7.60;1.80;;;;;;;16.28;100.00;101979.38;4960880;28;20461;-72
2022/06/11 03:43:49;;;;;;;5.37;1.40;;;;;;;16.59;100.00;102039.38;4960311;28;20179;-73
2022/06/11 03:46:15;;;;;;;6.33;1.70;;;;;;;16.55;100.00;102028.13;4960341;28;20905;-73
2022/06/11 03:48:40;;;;;;;3.37;1.60;;;;;;;16.44;100.00;102013.34;4960864;28;20448;-72
2022/06/11 03:51:07;;;;;;;6.00;2.00;;;;;;;16.54;100.00;102031.03;4960932;28;20477;-72
2022/06/11 03:53:33;;;;;;;6.50;1.50;;;;;;;16.32;100.00;102006.91;5000309;22;20259;-72
2022/06/11 03:55:59;;;;;;;3.53;1.70;;;;;;;16.51;100.00;102043.13;5016860;28;20505;-71
2022/06/11 03:58:27;;;;;;;2.90;1.37;;;;;;;15.85;100.00;101983.53;5033135;28;20479;-72
2022/06/11 04:03:40;;;;;;;5.00;1.73;;;;;;;16.07;100.00;102065.38;5035147;28;20457;-71
2022/06/11 04:06:06;;;;;;;8.90;2.33;;;;;;;16.09;100.00;102060.59;5027781;28;20829;-72
2022/06/11 04:08:33;;;;;;;4.23;1.50;;;;;;;15.40;100.00;101959.69;5036017;28;20447;-72
2022/06/11 04:10:59;;;;;;;7.20;2.07;;;;;;;15.64;100.00;101998.03;5028660;28;20484;-72
2022/06/11 04:13:27;;;;;;;6.70;1.60;;;;;;;15.90;100.00;102081.16;5031342;28;20988;-72
2022/06/11 04:15:54;;;;;;;6.30;2.00;;;;;;;15.98;100.00;102089.91;5010766;28;20454;-72
2022/06/11 04:18:43;;;;;;;5.60;2.00;;;;;;;15.99;100.00;102088.03;5030202;28;21300;-72
2022/06/11 04:21:11;;;;;;;4.97;2.10;;;;;;;16.02;100.00;102099.28;5025066;28;20493;-71
2022/06/11 04:23:42;;;;;;;5.73;1.70;;;;;;;15.96;100.00;102092.00;5024026;28;20450;-71
2022/06/11 04:26:12;;;;;;;9.87;2.10;;;;;;;15.83;100.00;102067.63;5028905;28;20431;-71
2022/06/11 04:28:38;;;;;;;4.63;1.70;;;;;;;15.49;100.00;102027.94;5026647;28;20442;-72
2022/06/11 04:31:10;;;;;;;5.00;2.20;;;;;;;15.79;100.00;102060.94;5028013;28;20439;-71
2022/06/11 04:33:36;;;;;;;4.30;2.10;;;;;;;15.96;100.00;102105.53;5025090;28;20467;-71
2022/06/11 04:36:03;;;;;;;6.23;2.23;;;;;;;15.87;100.00;102098.63;5035018;28;20466;-71
2022/06/11 04:38:32;;;;;;;8.03;2.60;;;;;;;15.53;100.00;102030.03;5038068;28;20438;-71
2022/06/11 04:40:57;;;;;;;5.17;1.50;;;;;;;15.93;100.00;102097.81;5022396;28;20441;-71
2022/06/11 04:43:23;;;;;;;9.73;2.57;;;;;;;15.63;100.00;102072.09;5031600;28;20875;-72
2022/06/11 04:45:49;;;;;;;9.27;2.83;;;;;;;15.73;100.00;102095.03;5032577;28;20212;-72
2022/06/11 04:48:16;;;;;;;4.57;2.77;;;;;;;15.84;100.00;102117.97;5028980;28;20196;-71
2022/06/11 04:50:42;;;;;;;5.67;2.23;;;;;;;15.89;100.00;102120.91;5029552;28;20434;-72
2022/06/11 04:53:08;;;;;;;6.60;2.13;;;;;;;15.52;100.00;102059.97;5028858;28;20470;-72
2022/06/11 04:55:34;;;;;;;5.23;1.90;;;;;;;16.01;100.00;102123.88;5029314;28;20497;-71
2022/06/11 04:58:00;;;;;;;6.40;2.47;;;;;;;15.86;100.00;102059.09;5030933;28;20208;-71
2022/06/11 05:00:29;;;;;;;5.43;1.93;;;;;;;15.79;100.00;102050.97;5031670;28;20431;-72
2022/06/11 05:02:55;;;;;;;8.50;2.50;;;;;;;16.03;100.00;102110.97;5026565;28;20842;-71
2022/06/11 05:05:22;;;;;;;8.20;3.07;;;;;;;16.22;100.00;102099.34;5026456;28;20439;-72
2022/06/11 05:07:52;;;;;;;8.60;3.00;;;;;;;15.75;100.00;102013.69;5030884;28;20559;-72
2022/06/11 05:10:21;;;;;;;6.20;2.40;;;;;;;16.23;100.00;102100.19;5020325;28;20510;-72
2022/06/11 05:12:47;;;;;;;5.57;2.37;;;;;;;16.14;100.00;102093.28;5025685;28;20484;-72
2022/06/11 05:15:13;;;;;;;7.73;2.80;;;;;;;16.29;100.00;102093.94;5021856;28;20532;-72
2022/06/11 05:17:39;;;;;;;8.90;2.20;;;;;;;15.87;100.00;102030.16;5017774;28;20689;-72
2022/06/11 05:20:06;;;;;;;11.87;2.50;;;;;;;15.59;100.00;101990.50;5029161;28;20439;-72
2022/06/11 05:22:32;;;;;;;7.30;2.30;;;;;;;15.74;100.00;102007.47;5026649;28;20184;-71
2022/06/11 05:24:57;;;;;;;7.43;2.27;;;;;;;15.67;100.00;101994.91;5011926;28;20971;-71
2022/06/11 05:27:25;;;;;;;7.57;3.00;;;;;;;16.02;100.00;102063.28;5022135;28;20183;-72
2022/06/11 05:30:00;;;;;;;8.27;2.73;;;;;;;16.08;100.00;102053.50;5032819;28;20214;-71
2022/06/11 05:32:32;;;;;;;10.83;2.47;;;;;;;16.45;100.00;102093.53;5031131;28;20445;-72
2022/06/11 05:35:00;;;;;;;6.17;2.57;;;;;;;16.37;100.00;102068.53;5027039;28;20435;-72
2022/06/11 05:37:26;;;;;;;10.20;3.40;;;;;;;16.07;100.00;102049.16;5028450;28;20473;-71
2022/06/11 05:39:52;;;;;;;6.70;2.47;;;;;;;16.41;100.00;102095.00;5015854;28;20888;-72
2022/06/11 05:42:20;;;;;;;8.77;2.40;;;;;;;16.37;100.00;102093.72;5019598;28;20456;-72
2022/06/11 05:44:47;;;;;;;9.13;2.53;;;;;;;16.45;100.00;102095.41;5022450;28;20435;-72
2022/06/11 05:47:15;;;;;;;10.57;2.77;;;;;;;16.18;100.00;102041.25;5020849;28;20434;-70
2022/06/11 05:49:45;;;;;;;7.10;2.93;;;;;;;16.52;100.00;102085.44;5020361;28;20434;-71
2022/06/11 05:52:24;;;;;;;8.07;3.00;;;;;;;16.43;100.00;102089.38;5027940;28;20473;-71
2022/06/11 05:54:51;;;;;;;5.93;2.57;;;;;;;16.54;100.00;102090.63;5007533;28;20450;-71
2022/06/11 05:57:20;;;;;;;6.13;3.07;;;;;;;16.64;100.00;102107.31;5010418;28;20574;-71
2022/06/11 05:59:51;;;;;;;5.50;2.73;;;;;;;16.68;100.00;102103.13;5023767;28;21157;-71
2022/06/11 06:02:19;;;;;;;6.60;2.63;;;;;;;16.79;100.00;102101.72;5002494;28;20501;-71
2022/06/11 06:04:45;;;;;;;9.37;3.00;;;;;;;16.35;100.00;102051.69;5012048;28;20522;-71
2022/06/11 06:07:10;;;;;;;8.63;3.57;;;;;;;16.49;100.00;102102.94;5023291;28;20998;-70
2022/06/11 06:09:36;;;;;;;9.10;3.03;;;;;;;16.56;100.00;102121.06;5026186;28;20179;-71
2022/06/11 06:12:03;;;;;;;9.20;3.30;;;;;;;16.00;100.00;102028.31;5020049;28;20188;-71
2022/06/11 06:14:28;;;;;;;13.23;3.50;;;;;;;16.73;100.00;102106.88;5029748;28;20813;-71
2022/06/11 06:16:54;;;;;;;8.90;2.73;;;;;;;16.61;100.00;102076.06;5022545;28;20466;-71
2022/06/11 06:19:20;;;;;;;9.37;3.30;;;;;;;16.74;100.00;102115.84;5025829;28;20183;-71
2022/06/11 06:21:46;;;;;;;9.60;3.70;;;;;;;16.76;100.00;102102.09;5017782;28;20191;-72
2022/06/11 06:24:11;;;;;;;8.73;3.00;;;;;;;16.48;100.00;102048.97;5026245;28;20215;-72
2022/06/11 06:26:37;;;;;;;11.03;3.50;;;;;;;16.33;100.00;102048.34;5016345;28;21287;-72
2022/06/11 06:29:03;;;;;;;8.37;3.30;;;;;;;16.83;100.00;102109.19;5021785;28;20188;-72
2022/06/11 06:31:29;;;;;;;8.40;2.67;;;;;;;15.96;100.00;101977.50;5016655;28;20528;-72
2022/06/11 06:33:58;;;;;;;10.30;3.13;;;;;;;16.85;100.00;102122.53;5027186;28;20459;-72
2022/06/11 06:36:25;;;;;;;9.20;2.90;;;;;;;16.39;100.00;102007.72;5026644;28;20208;-72
2022/06/11 06:38:51;;;;;;;11.10;3.47;;;;;;;16.96;100.00;102110.25;5023845;28;20493;-72
2022/06/11 06:41:18;;;;;;;11.60;3.30;;;;;;;16.98;100.00;102109.00;5028528;28;20491;-73
2022/06/11 06:43:44;;;;;;;15.77;4.23;;;;;;;16.49;100.00;102070.44;5027913;28;20216;-72
2022/06/11 06:46:10;;;;;;;13.20;3.13;;;;;;;17.00;100.00;102106.06;5022660;28;20431;-73
2022/06/11 06:48:36;;;;;;;14.80;4.10;;;;;;;16.90;100.00;102098.38;5026799;28;20867;-72
2022/06/11 06:51:02;;;;;;;11.97;3.20;;;;;;;17.04;100.00;102086.47;5025638;28;20184;-72
2022/06/11 06:53:28;;;;;;;10.70;3.33;;;;;;;16.75;100.00;102052.50;5030768;28;20230;-72
2022/06/11 06:55:54;;;;;;;10.87;3.43;;;;;;;16.86;100.00;102067.28;5029235;28;20449;-73
2022/06/11 06:58:20;;;;;;;11.53;3.60;;;;;;;17.24;100.00;102126.22;5023578;28;20930;-77
2022/06/11 07:00:46;;;;;;;11.27;3.40;;;;;;;16.58;100.00;102007.94;5001755;28;20171;-77
2022/06/11 07:03:12;;;;;;;13.17;4.10;;;;;;;17.26;100.00;102126.88;5014467;28;20959;-77
2022/06/11 07:05:39;;;;;;;14.97;3.90;;;;;;;17.16;100.00;102108.34;5030909;28;20516;-78
2022/06/11 07:08:08;;;;;;;12.90;3.40;;;;;;;17.16;100.00;102130.03;5030414;28;20435;-77
2022/06/11 07:10:34;;;;;;;10.93;3.33;;;;;;;17.25;100.00;102131.47;5013264;28;20451;-80
2022/06/11 07:13:01;;;;;;;10.67;3.53;;;;;;;17.26;100.00;102129.56;4997948;28;20464;-81
2022/06/11 07:15:27;;;;;;;10.87;2.97;;;;;;;17.07;100.00;102105.00;5003678;28;20430;-81
2022/06/11 07:18:00;;;;;;;11.80;3.87;;;;;;;17.04;100.00;102085.59;5005636;28;20494;-80
2022/06/11 07:20:28;;;;;;;15.07;4.43;;;;;;;17.29;100.00;102134.56;4992335;28;20439;-79
2022/06/11 07:23:04;;;;;;;15.63;3.90;;;;;;;16.62;100.00;102020.00;5001190;28;20541;-81
2022/06/11 07:25:30;;;;;;;15.47;4.77;;;;;;;17.20;100.00;102131.25;5004913;28;20438;-76
2022/06/11 07:28:15;;;;;;;13.50;4.00;;;;;;;17.25;100.00;102144.19;5002137;28;20537;-74
2022/06/11 07:30:44;;;;;;;13.30;3.20;;;;;;;17.22;100.00;102099.34;5012488;28;20457;-75
2022/06/11 07:33:14;;;;;;;13.60;3.80;;;;;;;17.51;100.00;102135.16;5020515;28;20857;-75
2022/06/11 07:35:39;;;;;;;17.40;4.00;;;;;;;17.32;100.00;102097.00;5012838;28;20460;-78
2022/06/11 07:38:08;;;;;;;10.27;3.20;;;;;;;17.09;100.00;102066.84;5021848;28;20474;-70
2022/06/11 07:40:34;;;;;;;13.27;3.90;;;;;;;17.62;100.00;102143.47;5020075;28;20188;-72
2022/06/11 07:43:00;;;;;;;12.13;3.50;;;;;;;17.37;100.00;102113.50;4992538;28;20811;-75
2022/06/11 07:45:25;;;;;;;12.30;3.27;;;;;;;17.32;100.00;102085.34;5021683;28;21289;-73
2022/06/11 07:47:54;;;;;;;11.30;3.60;;;;;;;17.79;100.00;102148.44;5014137;28;20659;-74
2022/06/11 07:50:23;;;;;;;12.40;3.63;;;;;;;17.56;100.00;102110.91;4996275;28;20199;-75
2022/06/11 07:52:49;;;;;;;14.73;3.93;;;;;;;17.36;100.00;102075.75;5020285;28;20459;-72
2022/06/11 07:55:15;;;;;;;11.93;3.10;;;;;;;17.84;100.00;102135.88;5021727;28;20438;-71
2022/06/11 07:57:40;;;;;;;12.40;3.63;;;;;;;17.56;100.00;102105.47;5018194;28;20200;-68
2022/06/11 08:00:14;;;;;;;13.93;3.73;;;;;;;17.87;100.00;102139.22;4990736;28;20322;-76
2022/06/11 08:02:43;;;;;;;12.33;3.90;;;;;;;18.04;100.00;102156.69;4998555;28;20568;-78
2022/06/11 08:05:08;;;;;;;16.13;4.20;;;;;;;17.61;100.00;102087.50;5016457;28;20801;-76
2022/06/11 08:07:34;;;;;;;13.20;4.30;;;;;;;17.69;100.00;102089.16;5008648;28;20462;-78
2022/06/11 08:10:02;;;;;;;14.47;3.73;;;;;;;17.92;100.00;102132.09;5011122;28;20562;-76
2022/06/11 08:12:27;;;;;;;12.10;3.73;;;;;;;18.15;100.00;102155.16;5008168;28;20184;-77
2022/06/11 08:14:56;;;;;;;14.17;4.73;;;;;;;17.77;100.00;102082.66;5018146;28;20489;-76
2022/06/11 08:17:29;;;;;;;13.87;3.90;;;;;;;17.82;100.00;102093.75;5022863;28;20210;-78
2022/06/11 08:19:55;;;;;;;17.33;4.00;;;;;;;18.19;100.00;102162.66;5018450;28;20439;-78
2022/06/11 08:22:21;;;;;;;12.67;4.03;;;;;;;17.61;100.00;102083.97;5005932;28;21733;-76
2022/06/11 08:24:47;;;;;;;14.80;4.80;;;;;;;17.05;100.00;101985.13;5025533;28;20272;-78
2022/06/11 08:27:13;;;;;;;12.30;3.20;;;;;;;17.33;100.00;102043.63;5016678;28;21021;-78
2022/06/11 08:29:38;;;;;;;12.17;3.50;;;;;;;18.29;100.00;102141.28;5017963;28;20457;-77
2022/06/11 08:32:05;;;;;;;10.30;3.60;;;;;;;18.16;100.00;102144.06;5013251;28;20238;-79
2022/06/11 08:34:35;;;;;;;16.17;4.30;;;;;;;18.38;100.00;102162.75;5017074;28;20250;-80
2022/06/11 08:37:00;;;;;;;13.83;4.30;;;;;;;17.86;100.00;102081.41;5005710;28;20515;-78
2022/06/11 08:39:26;;;;;;;10.87;4.00;;;;;;;18.05;100.00;102113.03;5018871;28;20462;-78
2022/06/11 08:41:51;;;;;;;13.50;4.30;;;;;;;16.72;100.00;101893.91;5023377;28;20661;-77
2022/06/11 08:44:17;;;;;;;14.27;4.37;;;;;;;17.24;100.00;101985.25;5010395;28;20200;-80
2022/06/11 08:46:45;;;;;;;15.87;4.30;;;;;;;18.48;100.00;102176.69;5009563;28;20179;-80
2022/06/11 08:49:34;;;;;;;16.27;4.10;;;;;;;18.26;100.00;102122.72;5010660;28;20243;-78
2022/06/11 08:52:10;;;;;;;13.17;4.93;;;;;;;18.66;100.00;102184.94;5011017;28;20485;-79
2022/06/11 08:54:41;;;;;;;14.87;3.90;;;;;;;18.45;100.00;102167.09;5013664;28;20885;-78
2022/06/11 08:57:40;;;;;;;12.00;3.80;;;;;;;18.32;100.00;102137.31;5003735;28;20455;-78
2022/06/11 09:00:15;;;;;;;8.47;3.03;;;;;;;18.64;100.00;102183.50;4990095;28;20438;-76
2022/06/11 09:02:50;;;;;;;14.20;4.17;;;;;;;18.51;100.00;102184.41;5023601;28;20451;-80
2022/06/11 09:05:29;;;;;;;16.23;4.20;;;;;;;18.41;100.00;102174.03;4988087;28;22199;-78
2022/06/11 09:08:32;;;;;;;10.30;2.50;;;;;;;18.51;100.00;102179.81;4998726;28;20450;-80
2022/06/11 09:11:09;;;;;;;14.73;3.67;;;;;;;18.59;100.00;102175.97;5001340;28;20690;-79
2022/06/11 09:14:06;;;;;;;14.07;3.33;;;;;;;18.57;100.00;102174.53;4997078;28;20457;-81
2022/06/11 09:16:31;;;;;;;19.60;4.77;;;;;;;18.72;100.00;102189.50;4998825;28;20457;-79
2022/06/11 09:19:24;;;;;;;10.53;3.00;;;;;;;18.81;100.00;102165.63;5023550;28;20439;-77
2022/06/11 09:22:20;;;;;;;13.47;3.43;;;;;;;18.67;100.00;102178.44;5011593;28;20208;-79
2022/06/11 09:25:10;;;;;;;16.33;4.47;;;;;;;18.72;100.00;102166.91;5018379;28;21103;-78
2022/06/11 09:28:01;;;;;;;15.17;3.70;;;;;;;18.67;100.00;102166.75;5009291;28;20427;-75
2022/06/11 09:30:53;;;;;;;13.30;4.17;;;;;;;18.60;100.00;102161.38;5005488;28;20598;-72
2022/06/11 09:33:46;;;;;;;11.43;3.50;;;;;;;18.79;100.00;102172.31;5024998;28;20482;-73
2022/06/11 09:36:27;;;;;;;11.20;3.70;;;;;;;18.63;100.00;102136.47;5016230;28;20459;-73
2022/06/11 09:39:08;;;;;;;9.70;3.83;;;;;;;18.99;100.00;102166.72;5017946;28;20435;-72
2022/06/11 09:41:40;;;;;;;8.20;2.80;;;;;;;19.15;100.00;102166.13;4991035;28;20458;-75
2022/06/11 09:44:29;;;;;;;8.30;3.30;;;;;;;19.15;100.00;102167.00;5018944;28;20485;-76
2022/06/11 09:47:03;;;;;;;12.63;3.00;;;;;;;19.13;100.00;102169.09;5008312;28;20430;-74
2022/06/11 09:49:28;;;;;;;14.37;3.90;;;;;;;19.23;100.00;102165.03;5002954;28;20943;-73
2022/06/11 09:52:06;;;;;;;10.77;3.10;;;;;;;19.28;100.00;102141.53;4995493;28;20447;-75
2022/06/11 09:54:32;;;;;;;14.87;5.27;;;;;;;19.56;100.00;102173.69;5017978;28;20212;-75
2022/06/11 09:57:34;;;;;;;7.40;2.63;;;;;;;19.63;100.00;102169.00;5027665;22;20505;-82
2022/06/11 10:00:21;;;;;;;8.33;3.27;;;;;;;19.49;100.00;102170.19;5011885;28;20449;-80
2022/06/11 10:02:58;;;;;;;12.80;3.17;;;;;;;19.49;100.00;102164.75;5008459;28;20435;-85
2022/06/11 10:05:36;;;;;;;13.47;4.30;;;;;;;19.32;100.00;102180.00;4995484;28;20959;-83
2022/06/11 10:08:21;;;;;;;14.87;3.67;;;;;;;19.01;100.00;102132.81;5009906;28;20493;-80
2022/06/11 10:10:49;;;;;;;12.87;3.37;;;;;;;19.23;100.00;102178.63;5010895;28;20431;-81
2022/06/11 10:13:52;;;;;;;14.00;3.70;;;;;;;19.15;100.00;102180.59;5020776;28;20442;-82
2022/06/11 10:16:24;;;;;;;9.23;3.10;;;;;;;19.34;100.00;102172.47;5020415;28;20466;-82
2022/06/11 10:18:52;;;;;;;9.93;3.13;;;;;;;19.39;100.00;102142.69;5019082;28;20430;-82
2022/06/11 10:21:19;;;;;;;13.70;4.60;;;;;;;19.41;100.00;102174.06;5019741;28;20946;-81
2022/06/11 10:23:58;;;;;;;7.23;2.53;;;;;;;19.47;100.00;102166.03;5018520;28;20446;-84
2022/06/11 10:26:32;;;;;;;9.73;2.83;;;;;;;19.49;100.00;102153.03;5017102;28;20884;-83
2022/06/11 10:29:26;;;;;;;12.57;3.60;;;;;;;19.80;100.00;102184.75;5011170;28;20441;-82
2022/06/11 10:32:13;;;;;;;11.70;3.33;;;;;;;19.61;100.00;102184.72;5001673;28;20438;-80
2022/06/11 10:34:55;;;;;;;8.33;2.30;;;;;;;19.46;100.00;102161.66;5017118;28;20494;-82
2022/06/11 10:37:35;;;;;;;15.87;2.90;;;;;;;19.45;100.00;102177.16;5000674;28;22208;-84
2022/06/11 10:40:19;;;;;;;9.90;3.33;;;;;;;19.41;100.00;102193.09;5021904;28;20462;-85
2022/06/11 10:43:12;;;;;;;10.77;3.73;;;;;;;19.26;100.00;102159.13;5016139;28;20442;-80
2022/06/11 10:45:38;;;;;;;10.20;2.83;;;;;;;19.21;100.00;102148.94;5012152;28;20439;-83
2022/06/11 10:48:16;;;;;;;10.40;3.07;;;;;;;19.57;100.00;102191.66;5010540;28;20451;-84
2022/06/11 10:50:41;;;;;;;10.70;3.13;;;;;;;19.39;100.00;102184.31;4998902;28;20180;-85
2022/06/11 10:53:27;;;;;;;11.83;2.60;;;;;;;18.94;100.00;102130.16;5024485;28;20958;-84
2022/06/11 10:55:57;;;;;;;8.27;2.53;;;;;;;19.13;100.00;102139.19;5025844;28;20177;-83
2022/06/11 10:58:44;;;;;;;10.83;3.30;;;;;;;19.36;100.00;102176.63;5006249;28;20460;-81
2022/06/11 11:01:23;;;;;;;8.70;2.30;;;;;;;19.55;100.00;102188.34;5028359;28;20488;-84
2022/06/11 11:03:55;;;;;;;9.53;3.27;;;;;;;19.61;100.00;102186.59;5022940;28;20918;-84
2022/06/11 11:06:30;;;;;;;10.93;2.63;;;;;;;19.78;100.00;102184.13;5015337;28;20507;-84
2022/06/11 11:08:58;;;;;;;10.43;3.20;;;;;;;19.52;100.00;102153.41;5009578;28;20423;-82
2022/06/11 11:11:27;;;;;;;9.33;2.87;;;;;;;19.22;100.00;102107.09;5025888;28;20439;-85
2022/06/11 11:14:06;;;;;;;12.83;3.43;;;;;;;19.55;100.00;102128.47;5023584;28;20469;-83
2022/06/11 11:16:36;;;;;;;11.90;2.83;;;;;;;19.80;100.00;102185.59;5023258;28;20473;-85
2022/06/11 11:19:15;;;;;;;9.40;3.03;;;;;;;19.64;100.00;102189.72;5028186;28;20437;-87
2022/06/11 11:21:51;;;;;;;14.40;3.33;;;;;;;19.64;100.00;102180.69;5025441;28;20415;-83
2022/06/11 11:24:21;;;;;;;8.77;2.67;;;;;;;19.20;100.00;102120.06;5026195;28;20416;-83
2022/06/11 11:26:53;;;;;;;11.07;2.60;;;;;;;19.56;100.00;102167.41;5027482;28;20465;-86
2022/06/11 11:29:29;;;;;;;11.53;3.90;;;;;;;19.49;100.00;102145.69;5026463;28;20435;-83
2022/06/11 11:32:02;;;;;;;10.17;2.57;;;;;;;19.78;100.00;102195.03;5009708;28;20427;-83
2022/06/11 11:34:30;;;;;;;7.50;2.50;;;;;;;20.03;100.00;102194.94;5027763;28;20446;-85
2022/06/11 11:37:19;;;;;;;8.97;2.47;;;;;;;19.73;100.00;102182.13;5011131;28;20478;-80